Time;durP1;ratioP1;P1;durP2;ratioP2;P2;SDS_P1;SDS_P2;PMS_P1;PMS_P2;Temp;Humidity;BMP_temperature;BMP_pressure;BME280_temperature;BME280_humidity;BME280_pressure;Samples;Min_cycle;Max_cycle;Signal;HPM_P1;HPM_P2
2023/06/13 00:01:19;;;;;;;7.70;4.50;;;19.50;77.10;;;;;;5094049;28;20276;-76
2023/06/13 00:03:47;;;;;;;6.57;4.80;;;19.40;77.60;;;;;;5096646;28;20210;-76
2023/06/13 00:06:17;;;;;;;7.10;5.33;;;19.30;78.00;;;;;;5094289;28;20231;-77
2023/06/13 00:08:44;;;;;;;8.37;5.10;;;19.30;78.90;;;;;;5075416;28;20257;-77
2023/06/13 00:11:11;;;;;;;9.17;5.43;;;19.20;79.20;;;;;;5090202;28;20266;-78
2023/06/13 00:13:39;;;;;;;6.60;4.83;;;19.10;79.60;;;;;;5093777;28;20547;-78
2023/06/13 00:16:06;;;;;;;7.23;5.50;;;19.10;79.80;;;;;;5093048;28;20218;-77
2023/06/13 00:18:33;;;;;;;6.57;5.27;;;19.00;79.60;;;;;;5096637;28;20227;-77
2023/06/13 00:21:00;;;;;;;8.40;4.57;;;18.90;80.20;;;;;;5093023;28;20634;-76
2023/06/13 00:23:27;;;;;;;7.87;5.50;;;18.90;80.60;;;;;;5096004;28;20202;-76
2023/06/13 00:25:54;;;;;;;6.83;5.27;;;18.80;80.80;;;;;;5095951;28;20433;-75
2023/06/13 00:28:20;;;;;;;8.83;5.57;;;18.70;80.60;;;;;;5096943;28;20251;-77
2023/06/13 00:30:47;;;;;;;9.30;5.37;;;18.70;80.80;;;;;;5100919;28;20208;-76
2023/06/13 00:33:16;;;;;;;8.17;5.33;;;18.60;81.10;;;;;;5096493;28;20667;-77
2023/06/13 00:35:44;;;;;;;7.80;5.43;;;18.60;81.60;;;;;;5096330;28;20211;-76
2023/06/13 00:38:12;;;;;;;7.37;5.07;;;18.50;81.10;;;;;;5100045;28;20232;-76
2023/06/13 00:40:39;;;;;;;8.83;5.17;;;18.40;81.40;;;;;;5098562;28;20288;-77
2023/06/13 00:43:06;;;;;;;7.00;5.23;;;18.40;81.50;;;;;;5093270;28;20745;-77
2023/06/13 00:45:34;;;;;;;8.80;5.53;;;18.40;81.90;;;;;;5098587;28;20208;-75
2023/06/13 00:48:05;;;;;;;12.13;5.67;;;18.30;82.10;;;;;;5100538;28;20207;-75
2023/06/13 00:50:40;;;;;;;10.17;5.50;;;18.30;82.50;;;;;;5099603;28;20287;-75
2023/06/13 00:53:17;;;;;;;7.47;5.27;;;18.30;82.80;;;;;;5096089;28;20219;-77
2023/06/13 00:55:46;;;;;;;7.27;5.40;;;18.20;82.80;;;;;;5098315;28;20198;-77
2023/06/13 00:58:13;;;;;;;10.83;5.97;;;18.20;82.70;;;;;;5096199;28;20196;-76
2023/06/13 01:00:43;;;;;;;9.63;5.27;;;18.20;82.70;;;;;;5081448;28;20267;-78
2023/06/13 01:03:15;;;;;;;7.30;5.50;;;18.10;82.90;;;;;;5081888;28;20231;-76
2023/06/13 01:05:43;;;;;;;8.70;5.40;;;18.10;82.90;;;;;;5103263;28;20613;-75
2023/06/13 01:08:21;;;;;;;7.60;5.17;;;18.00;83.20;;;;;;5096892;28;20206;-75
2023/06/13 01:10:59;;;;;;;9.70;5.00;;;18.00;83.50;;;;;;5097792;28;20234;-77
2023/06/13 01:13:51;;;;;;;8.57;5.40;;;17.90;83.60;;;;;;5100677;28;20635;-76
2023/06/13 01:16:34;;;;;;;10.53;6.00;;;17.80;83.70;;;;;;5095261;28;20208;-76
2023/06/13 01:19:08;;;;;;;11.30;5.57;;;17.80;84.00;;;;;;5099176;28;20266;-76
2023/06/13 01:21:37;;;;;;;7.27;5.47;;;17.80;84.20;;;;;;5097355;28;20229;-76
2023/06/13 01:24:12;;;;;;;8.70;5.97;;;17.70;84.20;;;;;;5096569;28;20281;-76
2023/06/13 01:26:59;;;;;;;8.90;6.10;;;17.70;84.60;;;;;;5097439;28;20624;-77
2023/06/13 01:29:29;;;;;;;7.20;5.50;;;17.70;84.80;;;;;;5100310;28;20260;-76
2023/06/13 01:31:56;;;;;;;9.37;5.80;;;17.60;85.00;;;;;;5098466;28;20211;-76
2023/06/13 01:34:24;;;;;;;8.57;5.50;;;17.60;85.50;;;;;;5099331;28;20211;-75
2023/06/13 01:36:54;;;;;;;6.60;5.80;;;17.50;85.80;;;;;;5094832;28;20226;-76
2023/06/13 01:39:22;;;;;;;8.87;5.77;;;17.50;86.50;;;;;;5094570;28;20612;-76
2023/06/13 01:41:48;;;;;;;8.53;5.70;;;17.60;87.70;;;;;;5099075;28;20226;-76
2023/06/13 01:44:17;;;;;;;7.77;5.80;;;17.20;87.40;;;;;;5095038;28;20578;-76
2023/06/13 01:46:50;;;;;;;9.47;5.93;;;17.30;88.30;;;;;;5097062;28;20247;-76
2023/06/13 01:49:24;;;;;;;10.43;6.33;;;17.20;88.00;;;;;;5091269;28;20204;-76
2023/06/13 01:52:07;;;;;;;10.77;6.00;;;17.20;88.70;;;;;;5094668;28;20268;-77
2023/06/13 01:54:40;;;;;;;12.47;6.47;;;17.10;88.70;;;;;;5094952;28;20203;-76
2023/06/13 01:57:12;;;;;;;8.60;6.13;;;17.10;89.00;;;;;;5079895;28;20620;-79
2023/06/13 01:59:40;;;;;;;8.67;6.40;;;17.00;89.10;;;;;;5095996;28;20235;-77
2023/06/13 02:02:07;;;;;;;8.83;6.30;;;16.80;89.70;;;;;;5094977;28;20634;-78
2023/06/13 02:04:43;;;;;;;9.30;5.80;;;16.90;90.10;;;;;;5096305;28;20281;-77
2023/06/13 02:07:10;;;;;;;8.77;6.30;;;16.90;90.10;;;;;;5099202;28;20638;-75
2023/06/13 02:09:37;;;;;;;9.33;6.93;;;16.80;90.00;;;;;;5095089;28;20206;-75
2023/06/13 02:12:04;;;;;;;7.97;6.47;;;16.80;90.00;;;;;;5094490;28;20211;-78
2023/06/13 02:14:32;;;;;;;8.63;5.77;;;;;;;;;;5098988;28;20200;-75
2023/06/13 02:17:00;;;;;;;8.40;6.07;;;16.80;89.70;;;;;;5080127;28;20648;-76
2023/06/13 02:19:27;;;;;;;9.43;6.27;;;16.80;90.10;;;;;;5098416;28;20311;-78
2023/06/13 02:21:54;;;;;;;10.83;6.80;;;16.70;90.00;;;;;;5094273;28;20223;-76
2023/06/13 02:24:21;;;;;;;8.53;6.37;;;16.70;90.10;;;;;;5094269;28;20202;-77
2023/06/13 02:26:49;;;;;;;8.93;6.90;;;16.70;90.20;;;;;;5094686;28;20264;-76
2023/06/13 02:29:18;;;;;;;9.97;6.77;;;16.70;90.10;;;;;;5098503;28;20228;-77
2023/06/13 02:31:45;;;;;;;9.70;6.23;;;16.70;90.40;;;;;;5094224;28;20208;-77
2023/06/13 02:34:12;;;;;;;10.97;6.70;;;16.70;90.10;;;;;;5096936;28;20231;-76
2023/06/13 02:36:39;;;;;;;8.93;6.33;;;16.70;90.20;;;;;;5100347;28;20591;-77
2023/06/13 02:39:07;;;;;;;11.43;6.60;;;16.70;90.30;;;;;;5094374;28;20656;-76
2023/06/13 02:41:34;;;;;;;7.43;5.70;;;16.70;90.40;;;;;;5082613;28;20601;-77
2023/06/13 02:44:01;;;;;;;10.00;6.80;;;16.60;90.60;;;;;;5095602;28;20263;-77
2023/06/13 02:46:28;;;;;;;10.33;7.30;;;16.60;90.60;;;;;;5097043;28;20549;-76
2023/06/13 02:48:55;;;;;;;9.97;6.60;;;16.50;90.80;;;;;;5096190;28;20520;-76
2023/06/13 02:51:22;;;;;;;10.43;7.20;;;16.50;91.00;;;;;;5091050;28;20260;-79
2023/06/13 02:53:49;;;;;;;11.73;6.63;;;16.40;91.10;;;;;;5083811;28;20207;-77
2023/06/13 02:56:15;;;;;;;9.67;6.70;;;16.40;91.20;;;;;;5096376;28;20243;-77
2023/06/13 02:58:42;;;;;;;8.40;6.47;;;16.30;91.20;;;;;;5097518;28;20207;-75
2023/06/13 03:01:09;;;;;;;10.17;6.97;;;16.40;91.50;;;;;;5096259;28;20204;-76
2023/06/13 03:03:37;;;;;;;10.97;7.80;;;16.30;91.90;;;;;;5093778;28;20359;-78
2023/06/13 03:06:04;;;;;;;10.33;6.90;;;16.30;92.00;;;;;;5092348;28;20212;-76
2023/06/13 03:08:31;;;;;;;9.80;6.07;;;16.20;92.10;;;;;;5095143;28;20219;-76
2023/06/13 03:10:58;;;;;;;8.47;6.17;;;16.20;92.10;;;;;;5098197;28;20218;-79
2023/06/13 03:13:27;;;;;;;8.83;6.57;;;16.10;92.10;;;;;;5097728;28;20244;-76
2023/06/13 03:15:54;;;;;;;11.57;6.77;;;16.10;92.40;;;;;;5077667;28;20218;-77
2023/06/13 03:18:23;;;;;;;12.50;6.97;;;16.10;92.50;;;;;;5095108;28;20236;-76
2023/06/13 03:20:50;;;;;;;9.93;6.77;;;16.10;92.70;;;;;;5096387;28;20209;-76
2023/06/13 03:23:17;;;;;;;8.67;6.90;;;16.10;93.00;;;;;;5095319;28;20243;-77
2023/06/13 03:25:44;;;;;;;12.07;6.90;;;16.00;93.00;;;;;;5097351;28;20203;-76
2023/06/13 03:28:12;;;;;;;10.23;7.07;;;15.90;93.40;;;;;;5090861;28;20566;-75
2023/06/13 03:30:39;;;;;;;10.60;6.97;;;15.90;93.40;;;;;;5083687;28;20213;-75
2023/06/13 03:33:06;;;;;;;12.83;7.57;;;15.90;93.70;;;;;;5096967;28;20235;-77
2023/06/13 03:35:34;;;;;;;10.00;6.83;;;15.90;94.00;;;;;;5097820;28;20363;-77
2023/06/13 03:38:01;;;;;;;11.07;6.97;;;15.90;94.10;;;;;;5084706;28;20828;-76
2023/06/13 03:40:28;;;;;;;10.00;7.10;;;15.90;94.50;;;;;;5095479;28;20741;-75
2023/06/13 03:42:56;;;;;;;8.83;6.60;;;15.90;94.70;;;;;;5079477;28;20234;-77
2023/06/13 03:45:24;;;;;;;11.57;7.60;;;15.90;95.00;;;;;;5096192;28;20240;-76
2023/06/13 03:47:51;;;;;;;11.73;7.50;;;15.80;95.40;;;;;;5091519;28;20216;-75
2023/06/13 03:50:18;;;;;;;11.00;6.67;;;15.80;95.90;;;;;;5097247;28;20206;-74
2023/06/13 03:52:45;;;;;;;9.87;6.60;;;15.70;96.10;;;;;;5094467;28;20215;-75
2023/06/13 03:55:13;;;;;;;10.77;7.33;;;15.70;96.30;;;;;;5089335;28;20698;-75
2023/06/13 03:57:40;;;;;;;9.73;7.33;;;15.70;96.70;;;;;;5089063;28;20223;-75
2023/06/13 04:00:08;;;;;;;9.67;7.10;;;15.70;97.10;;;;;;5089175;28;20640;-77
2023/06/13 04:02:35;;;;;;;12.00;7.77;;;15.70;97.10;;;;;;5096634;28;20230;-77
2023/06/13 04:05:02;;;;;;;11.07;7.70;;;15.70;97.20;;;;;;5099219;28;20199;-75
2023/06/13 04:07:33;;;;;;;10.37;7.20;;;15.80;97.40;;;;;;5099212;28;20200;-76
2023/06/13 04:10:02;;;;;;;9.67;6.83;;;15.80;97.60;;;;;;5095945;28;20616;-75
2023/06/13 04:12:30;;;;;;;10.03;7.03;;;15.80;97.80;;;;;;5097394;28;20691;-78
2023/06/13 04:14:57;;;;;;;11.40;7.23;;;15.80;98.10;;;;;;5092172;28;20763;-75
2023/06/13 04:17:24;;;;;;;11.00;7.97;;;15.80;98.20;;;;;;5093232;28;20679;-76
2023/06/13 04:19:52;;;;;;;11.57;7.23;;;15.80;98.60;;;;;;5092287;28;20228;-76
2023/06/13 04:22:19;;;;;;;11.70;8.03;;;15.90;98.80;;;;;;5092018;28;20243;-74
2023/06/13 04:24:46;;;;;;;10.23;7.10;;;15.90;99.10;;;;;;5097071;28;20214;-76
2023/06/13 04:27:19;;;;;;;12.90;7.33;;;16.00;99.20;;;;;;5096703;28;20607;-77
2023/06/13 04:29:48;;;;;;;10.10;7.50;;;16.00;99.20;;;;;;5082388;28;20204;-76
2023/06/13 04:32:17;;;;;;;10.80;7.57;;;16.00;99.60;;;;;;5083063;28;20203;-76
2023/06/13 04:34:45;;;;;;;13.33;7.60;;;16.10;99.60;;;;;;5081776;28;20875;-76
2023/06/13 04:37:13;;;;;;;11.43;7.77;;;16.10;99.90;;;;;;5079042;28;20204;-75
2023/06/13 04:39:40;;;;;;;12.43;8.10;;;16.10;99.90;;;;;;5097879;28;20244;-76
2023/06/13 04:42:07;;;;;;;13.40;8.03;;;16.20;99.90;;;;;;5098581;28;20228;-76
2023/06/13 04:44:35;;;;;;;11.47;7.87;;;16.20;99.90;;;;;;5100077;28;20659;-75
2023/06/13 04:47:02;;;;;;;8.87;6.93;;;16.20;99.90;;;;;;5095778;28;20211;-76
2023/06/13 04:49:30;;;;;;;12.67;7.20;;;16.30;99.90;;;;;;5103214;28;20259;-76
2023/06/13 04:51:58;;;;;;;11.30;7.70;;;16.30;99.90;;;;;;5095609;28;20204;-75
2023/06/13 04:54:25;;;;;;;10.13;7.47;;;16.40;99.90;;;;;;5093963;28;20201;-76
2023/06/13 04:56:52;;;;;;;11.47;7.13;;;16.40;99.90;;;;;;5092529;28;20205;-74
2023/06/13 04:59:19;;;;;;;12.93;7.60;;;16.50;99.90;;;;;;5093364;28;20256;-77
2023/06/13 05:01:47;;;;;;;11.37;7.80;;;16.60;99.90;;;;;;5091997;28;20220;-77
2023/06/13 05:04:15;;;;;;;12.80;7.77;;;16.60;99.90;;;;;;5079170;28;20675;-77
2023/06/13 05:06:42;;;;;;;12.93;7.63;;;16.70;99.90;;;;;;5100265;28;20210;-75
2023/06/13 05:09:10;;;;;;;16.10;7.33;;;16.80;99.90;;;;;;5082598;28;20207;-76
2023/06/13 05:11:36;;;;;;;12.20;8.07;;;16.90;99.90;;;;;;5099614;28;20234;-75
2023/06/13 05:14:03;;;;;;;11.93;7.47;;;17.00;99.90;;;;;;5093597;28;20206;-75
2023/06/13 05:16:30;;;;;;;11.23;7.50;;;17.00;99.90;;;;;;5099491;28;20195;-78
2023/06/13 05:19:00;;;;;;;11.47;8.00;;;17.20;99.90;;;;;;5097050;28;20792;-76
2023/06/13 05:21:28;;;;;;;10.73;7.40;;;17.30;99.90;;;;;;5092090;28;20268;-77
2023/06/13 05:23:56;;;;;;;11.77;7.73;;;17.40;99.90;;;;;;5091125;28;20230;-75
2023/06/13 05:26:23;;;;;;;11.68;6.95;;;17.70;99.90;;;;;;5091827;28;20199;-77
2023/06/13 05:28:50;;;;;;;12.27;6.93;;;18.70;99.90;;;;;;5091302;28;20208;-77
2023/06/13 05:31:17;;;;;;;9.45;7.22;;;19.90;99.30;;;;;;5096524;28;20198;-77
2023/06/13 05:33:44;;;;;;;11.15;7.45;;;21.10;96.90;;;;;;5095737;28;20257;-76
2023/06/13 05:36:11;;;;;;;12.10;7.80;;;22.30;94.30;;;;;;5096203;28;20200;-76
2023/06/13 05:38:40;;;;;;;9.88;6.95;;;;;;;;;;5100330;28;20211;-75
2023/06/13 05:41:06;;;;;;;9.85;6.05;;;24.40;90.00;;;;;;5080527;28;20207;-78
2023/06/13 05:43:33;;;;;;;9.93;6.35;;;25.40;87.40;;;;;;5085236;28;20227;-75
2023/06/13 05:46:00;;;;;;;10.13;6.78;;;26.10;84.70;;;;;;5096997;28;20200;-76
2023/06/13 05:48:28;;;;;;;8.65;7.15;;;26.80;83.40;;;;;;5100074;28;20670;-74
2023/06/13 05:50:55;;;;;;;9.75;6.80;;;;;;;;;;5097984;28;20208;-76
2023/06/13 05:53:23;;;;;;;6.97;6.22;;;27.90;78.20;;;;;;5098856;28;20646;-75
2023/06/13 05:55:50;;;;;;;9.90;7.03;;;28.60;77.00;;;;;;5099286;28;20559;-74
2023/06/13 05:58:16;;;;;;;10.75;7.25;;;28.80;74.90;;;;;;5098392;28;20207;-76
2023/06/13 06:00:45;;;;;;;10.77;6.50;;;29.10;73.70;;;;;;5093796;28;20671;-74
2023/06/13 06:03:13;;;;;;;8.13;6.28;;;29.50;73.30;;;;;;5100430;28;20219;-76
2023/06/13 06:05:40;;;;;;;7.28;6.43;;;29.90;72.00;;;;;;5085006;28;20214;-74
2023/06/13 06:08:07;;;;;;;8.35;5.90;;;30.40;70.90;;;;;;5096090;28;20232;-75
2023/06/13 06:10:34;;;;;;;7.97;6.78;;;30.70;70.80;;;;;;5099022;28;20490;-75
2023/06/13 06:13:01;;;;;;;7.38;6.03;;;31.30;67.70;;;;;;5080267;28;20261;-75
2023/06/13 06:15:28;;;;;;;7.28;6.45;;;31.40;67.10;;;;;;5095527;28;20652;-76
2023/06/13 06:17:55;;;;;;;7.47;6.25;;;31.50;67.00;;;;;;5095784;28;20268;-76
2023/06/13 06:20:22;;;;;;;9.82;6.10;;;31.70;66.90;;;;;;5081482;28;20286;-76
2023/06/13 06:22:48;;;;;;;7.60;6.07;;;31.80;66.00;;;;;;5089309;28;20228;-76
2023/06/13 06:25:19;;;;;;;7.55;5.88;;;31.80;65.90;;;;;;5089213;28;20253;-76
2023/06/13 06:27:50;;;;;;;7.05;5.93;;;32.00;65.10;;;;;;5090503;28;20566;-76
2023/06/13 06:30:17;;;;;;;6.57;5.78;;;32.10;64.60;;;;;;5095634;28;20195;-74
2023/06/13 06:32:44;;;;;;;10.13;5.85;;;32.30;64.00;;;;;;5091721;28;20276;-75
2023/06/13 06:35:11;;;;;;;6.95;5.50;;;32.40;63.70;;;;;;5084844;28;20207;-75
2023/06/13 06:37:38;;;;;;;9.10;5.78;;;32.50;63.50;;;;;;5093625;28;20257;-74
2023/06/13 06:40:06;;;;;;;8.00;5.47;;;32.50;62.90;;;;;;5094664;28;20692;-76
2023/06/13 06:42:33;;;;;;;8.32;5.50;;;32.50;63.10;;;;;;5094009;28;20277;-75
2023/06/13 06:45:00;;;;;;;8.07;5.47;;;32.70;63.00;;;;;;5096412;28;20226;-75
2023/06/13 06:47:27;;;;;;;6.63;5.78;;;33.00;62.20;;;;;;5076053;28;20195;-74
2023/06/13 06:49:54;;;;;;;8.43;5.90;;;33.10;61.30;;;;;;5093081;28;20214;-74
2023/06/13 06:52:21;;;;;;;6.72;5.82;;;33.10;60.90;;;;;;5098123;28;20195;-75
2023/06/13 06:54:47;;;;;;;7.47;5.53;;;33.10;61.10;;;;;;5094205;28;20278;-75
2023/06/13 06:57:14;;;;;;;6.72;5.18;;;33.40;61.40;;;;;;5092389;28;20199;-75
2023/06/13 06:59:41;;;;;;;10.52;5.63;;;33.60;60.50;;;;;;5091551;28;20199;-74
2023/06/13 07:02:08;;;;;;;7.57;5.20;;;33.80;60.50;;;;;;5081020;28;20203;-75
2023/06/13 07:04:35;;;;;;;7.22;5.25;;;33.70;59.80;;;;;;5092769;28;20218;-77
2023/06/13 07:07:03;;;;;;;7.82;5.57;;;33.70;59.80;;;;;;5095523;28;20683;-78
2023/06/13 07:09:30;;;;;;;5.90;4.80;;;33.50;59.10;;;;;;5096357;28;20222;-74
2023/06/13 07:11:57;;;;;;;6.38;5.35;;;33.50;59.70;;;;;;5095720;28;20203;-76
2023/06/13 07:14:25;;;;;;;7.72;4.85;;;33.60;59.80;;;;;;5094501;28;20203;-76
2023/06/13 07:16:55;;;;;;;6.35;4.32;;;33.60;59.00;;;;;;5096289;28;20211;-74
2023/06/13 07:19:23;;;;;;;7.78;4.95;;;33.50;59.00;;;;;;5089379;28;20230;-75
2023/06/13 07:21:50;;;;;;;7.22;4.68;;;33.70;58.60;;;;;;5089657;28;20743;-74
2023/06/13 07:24:17;;;;;;;5.72;4.75;;;33.30;58.60;;;;;;5097841;28;20223;-76
2023/06/13 07:26:43;;;;;;;7.07;5.15;;;33.10;58.60;;;;;;5093911;28;20207;-74
2023/06/13 07:29:10;;;;;;;7.60;4.90;;;32.90;59.10;;;;;;5094266;28;20203;-75
2023/06/13 07:31:37;;;;;;;7.15;4.65;;;32.80;58.70;;;;;;5097609;28;20569;-75
2023/06/13 07:34:04;;;;;;;5.20;4.57;;;32.60;58.80;;;;;;5094848;28;20210;-75
2023/06/13 07:36:41;;;;;;;7.07;4.85;;;32.60;58.70;;;;;;5101557;28;20605;-76
2023/06/13 07:39:14;;;;;;;5.25;4.32;;;32.60;57.60;;;;;;5097572;28;20245;-76
2023/06/13 07:41:44;;;;;;;5.85;4.78;;;32.60;57.30;;;;;;5088167;28;20430;-75
2023/06/13 07:44:11;;;;;;;6.55;4.45;;;32.60;57.40;;;;;;5098121;28;20240;-77
2023/06/13 07:46:38;;;;;;;5.47;4.30;;;32.80;57.40;;;;;;5101602;28;20242;-75
2023/06/13 07:49:05;;;;;;;7.00;4.55;;;32.60;56.90;;;;;;5081895;28;20230;-74
2023/06/13 07:51:32;;;;;;;9.23;5.03;;;32.60;57.10;;;;;;5097644;28;20215;-75
2023/06/13 07:53:59;;;;;;;6.22;4.70;;;32.70;56.50;;;;;;5097352;28;20207;-76
2023/06/13 07:56:26;;;;;;;6.30;4.68;;;32.60;55.80;;;;;;5100729;28;20207;-75
2023/06/13 07:58:53;;;;;;;6.70;4.68;;;32.60;56.00;;;;;;5083240;28;20659;-77
2023/06/13 08:01:22;;;;;;;5.55;4.57;;;32.40;56.00;;;;;;5100469;28;20222;-75
2023/06/13 08:03:48;;;;;;;6.65;4.47;;;32.30;56.10;;;;;;5099124;28;20231;-76
2023/06/13 08:06:16;;;;;;;5.75;4.47;;;32.10;56.30;;;;;;5100176;28;20211;-75
2023/06/13 08:08:43;;;;;;;5.35;4.20;;;32.10;55.70;;;;;;5103846;28;20215;-75
2023/06/13 08:11:10;;;;;;;5.93;4.90;;;32.00;56.80;;;;;;5097064;28;20222;-78
2023/06/13 08:13:37;;;;;;;4.82;4.28;;;31.80;57.10;;;;;;5097257;28;20542;-76
2023/06/13 08:16:04;;;;;;;6.90;4.82;;;31.60;57.10;;;;;;5102471;28;20236;-75
2023/06/13 08:18:31;;;;;;;6.32;4.95;;;31.40;57.70;;;;;;5096944;28;20315;-75
2023/06/13 08:20:58;;;;;;;7.85;5.00;;;31.00;57.90;;;;;;5081627;28;20651;-75
2023/06/13 08:23:25;;;;;;;5.05;4.43;;;30.80;58.10;;;;;;5099398;28;20211;-75
2023/06/13 08:25:52;;;;;;;5.45;4.70;;;30.70;58.40;;;;;;5099780;28;20215;-75
2023/06/13 08:28:19;;;;;;;7.63;5.10;;;30.70;58.70;;;;;;5097040;28;20222;-77
2023/06/13 08:30:46;;;;;;;8.10;5.03;;;30.70;58.80;;;;;;5100667;28;20203;-78
2023/06/13 08:33:13;;;;;;;6.32;5.00;;;30.80;58.60;;;;;;5092370;28;20261;-76
2023/06/13 08:35:40;;;;;;;8.15;4.60;;;31.00;58.00;;;;;;5101235;28;20206;-75
2023/06/13 08:38:07;;;;;;;7.50;5.18;;;31.20;57.50;;;;;;5098897;28;20228;-75
2023/06/13 08:40:34;;;;;;;5.20;4.70;;;31.30;57.70;;;;;;5097305;28;20214;-77
2023/06/13 08:43:01;;;;;;;6.05;4.78;;;31.20;57.60;;;;;;5100514;28;20199;-74
2023/06/13 08:45:28;;;;;;;6.43;5.13;;;31.20;57.80;;;;;;5096585;28;20212;-78
2023/06/13 08:47:55;;;;;;;7.88;4.93;;;31.10;57.60;;;;;;5099589;28;20205;-75
2023/06/13 08:50:26;;;;;;;5.43;4.80;;;31.20;56.60;;;;;;5096384;28;20243;-76
2023/06/13 08:52:57;;;;;;;7.15;4.55;;;31.40;56.10;;;;;;5099947;28;20311;-75
2023/06/13 08:55:27;;;;;;;5.45;4.60;;;31.30;56.60;;;;;;5091833;28;20212;-77
2023/06/13 08:58:00;;;;;;;5.35;4.63;;;31.10;57.20;;;;;;5100235;28;20715;-74
2023/06/13 09:00:33;;;;;;;7.32;5.07;;;30.80;57.40;;;;;;5098469;28;20238;-74
2023/06/13 09:03:00;;;;;;;5.30;4.80;;;30.70;57.70;;;;;;5096922;28;20601;-74
2023/06/13 09:05:28;;;;;;;6.18;5.00;;;30.80;57.70;;;;;;5101465;28;20226;-75
2023/06/13 09:07:56;;;;;;;6.85;5.00;;;31.00;57.40;;;;;;5092231;28;20212;-73
2023/06/13 09:10:44;;;;;;;6.25;5.05;;;30.80;55.20;;;;;;5092056;28;20257;-76
2023/06/13 09:13:12;;;;;;;5.38;4.50;;;30.60;55.00;;;;;;5091754;28;20212;-75
2023/06/13 09:15:41;;;;;;;6.28;5.03;;;30.40;55.10;;;;;;5091883;28;20257;-74
2023/06/13 09:18:12;;;;;;;5.18;4.53;;;30.40;54.80;;;;;;5095677;28;20196;-77
2023/06/13 09:20:39;;;;;;;7.68;4.63;;;30.40;54.30;;;;;;5096971;28;20223;-74
2023/06/13 09:23:07;;;;;;;10.55;4.93;;;30.50;54.00;;;;;;5096489;28;20561;-75
2023/06/13 09:25:36;;;;;;;6.88;4.45;;;30.70;53.40;;;;;;5093730;28;20203;-75
2023/06/13 09:28:28;;;;;;;5.88;4.50;;;30.70;53.40;;;;;;5096953;28;20279;-75
2023/06/13 09:30:56;;;;;;;7.40;5.03;;;30.90;53.30;;;;;;5099097;28;20634;-75
2023/06/13 09:33:24;;;;;;;8.25;4.65;;;30.80;53.10;;;;;;5096400;28;20642;-76
2023/06/13 09:35:52;;;;;;;5.68;4.38;;;30.80;53.10;;;;;;5096113;28;20257;-75
2023/06/13 09:38:23;;;;;;;12.68;5.30;;;30.70;53.30;;;;;;5098648;28;20236;-76
2023/06/13 09:40:56;;;;;;;6.88;4.85;;;30.60;53.10;;;;;;5092727;28;20333;-78
2023/06/13 09:43:24;;;;;;;8.70;5.28;;;30.50;53.20;;;;;;5098167;28;20204;-75
2023/06/13 09:45:51;;;;;;;8.75;4.90;;;30.10;53.40;;;;;;5080984;28;20208;-78
2023/06/13 09:48:19;;;;;;;8.15;5.20;;;29.90;53.50;;;;;;5094723;28;20440;-74
2023/06/13 09:50:46;;;;;;;6.28;4.78;;;30.10;53.90;;;;;;5083904;28;20207;-77
2023/06/13 09:53:13;;;;;;;9.88;5.07;;;;;;;;;;5091092;28;20400;-76
2023/06/13 09:55:40;;;;;;;6.75;4.70;;;29.80;66.60;;;;;;5091366;28;20210;-75
2023/06/13 09:58:08;;;;;;;7.03;4.75;;;29.60;54.60;;;;;;5089762;28;20192;-74
2023/06/13 10:00:57;;;;;;;6.95;4.70;;;29.40;54.40;;;;;;5100977;28;20221;-75
2023/06/13 10:03:25;;;;;;;5.93;5.13;;;29.30;54.60;;;;;;5098709;28;20306;-77
2023/06/13 10:05:53;;;;;;;6.18;4.65;;;29.30;54.90;;;;;;5096296;28;20639;-79
2023/06/13 10:08:19;;;;;;;9.13;4.80;;;29.30;55.10;;;;;;5097205;28;20207;-75
2023/06/13 10:10:47;;;;;;;6.50;4.85;;;29.40;55.30;;;;;;5098957;27;20199;-76
2023/06/13 10:13:18;;;;;;;6.70;5.20;;;29.50;55.10;;;;;;5097214;28;20497;-75
2023/06/13 10:15:57;;;;;;;5.93;5.07;;;29.70;54.30;;;;;;5100693;27;20195;-79
2023/06/13 10:18:31;;;;;;;6.57;5.20;;;29.90;55.40;;;;;;5089118;28;20227;-75
2023/06/13 10:20:59;;;;;;;6.57;4.95;;;30.00;55.60;;;;;;5090302;28;20648;-74
2023/06/13 10:23:28;;;;;;;5.40;4.90;;;30.30;55.80;;;;;;5099061;28;20203;-75
2023/06/13 10:26:00;;;;;;;6.97;4.70;;;30.50;55.50;;;;;;5099288;28;20202;-80
2023/06/13 10:28:48;;;;;;;6.20;4.93;;;30.50;55.50;;;;;;5095479;28;20301;-82
2023/06/13 10:32:19;;;;;;;6.53;4.72;;;30.60;55.50;;;;;;5094828;28;20249;-82
2023/06/13 10:35:09;;;;;;;5.88;4.90;;;30.60;54.80;;;;;;4995349;28;20202;-79
2023/06/13 10:38:08;;;;;;;8.93;4.78;;;30.60;54.80;;;;;;5004937;28;20237;-79
2023/06/13 10:41:00;;;;;;;7.63;4.65;;;30.70;53.80;;;;;;5082703;28;20249;-81
2023/06/13 10:43:38;;;;;;;6.47;4.82;;;30.70;53.40;;;;;;5091249;28;20596;-84
2023/06/13 10:46:07;;;;;;;5.65;4.68;;;30.60;54.50;;;;;;5095983;28;20496;-78
2023/06/13 10:48:42;;;;;;;5.63;4.70;;;30.60;54.30;;;;;;5094870;28;20294;-79
2023/06/13 10:51:10;;;;;;;7.20;4.85;;;30.50;53.80;;;;;;5074552;28;20230;-78
2023/06/13 10:53:37;;;;;;;8.98;4.97;;;30.60;54.00;;;;;;5094214;28;20667;-82
2023/06/13 10:56:08;;;;;;;6.47;4.65;;;30.60;53.90;;;;;;5094373;28;20212;-83
2023/06/13 10:58:35;;;;;;;5.20;4.70;;;30.60;54.50;;;;;;5098447;28;20291;-79
2023/06/13 11:01:26;;;;;;;9.43;4.70;;;30.70;54.10;;;;;;5097161;28;20203;-80
2023/06/13 11:04:14;;;;;;;7.80;4.53;;;30.70;53.80;;;;;;5100389;28;20222;-83
2023/06/13 11:06:43;;;;;;;6.25;4.70;;;30.80;54.90;;;;;;5101479;28;20207;-82
2023/06/13 11:09:23;;;;;;;6.35;3.92;;;30.80;54.30;;;;;;5101323;28;20565;-85
2023/06/13 11:11:55;;;;;;;7.25;4.97;;;30.90;52.60;;;;;;5098225;28;20650;-81
2023/06/13 11:14:27;;;;;;;5.78;4.55;;;30.80;52.20;;;;;;5093708;28;20207;-78
2023/06/13 11:16:55;;;;;;;5.55;4.90;;;30.70;53.60;;;;;;5094669;28;20277;-77
2023/06/13 11:19:24;;;;;;;5.60;4.63;;;30.70;53.50;;;;;;5094956;28;20296;-80
2023/06/13 11:22:10;;;;;;;6.28;5.10;;;30.60;53.60;;;;;;5097953;28;20223;-79
2023/06/13 11:24:39;;;;;;;8.20;4.88;;;30.70;54.30;;;;;;5094067;28;20246;-78
2023/06/13 11:27:11;;;;;;;5.25;4.32;;;30.80;54.30;;;;;;5094105;28;20257;-78
2023/06/13 11:29:38;;;;;;;5.45;4.55;;;30.90;55.30;;;;;;5094265;28;20211;-79
2023/06/13 11:32:08;;;;;;;5.03;4.53;;;30.80;54.10;;;;;;5093898;28;20211;-79
2023/06/13 11:34:50;;;;;;;5.22;4.25;;;30.60;54.30;;;;;;5094662;28;20212;-79
2023/06/13 11:37:43;;;;;;;6.25;4.70;;;30.60;54.30;;;;;;5098674;28;20252;-77
2023/06/13 11:40:26;;;;;;;7.78;4.88;;;30.70;54.10;;;;;;5099543;28;20211;-79
2023/06/13 11:42:53;;;;;;;8.40;4.70;;;30.50;53.60;;;;;;5096548;28;20208;-79
2023/06/13 11:45:22;;;;;;;7.07;4.85;;;30.50;54.30;;;;;;5094778;28;20591;-78
2023/06/13 11:48:01;;;;;;;6.78;5.10;;;30.40;53.60;;;;;;5096541;28;20572;-78
2023/06/13 11:50:28;;;;;;;7.82;4.82;;;30.20;53.70;;;;;;5097582;28;20553;-77
2023/06/13 11:53:08;;;;;;;6.00;4.78;;;30.30;54.20;;;;;;5095898;28;20204;-79
2023/06/13 11:55:36;;;;;;;8.32;4.53;;;30.30;55.60;;;;;;5096892;28;20507;-79
2023/06/13 11:58:03;;;;;;;5.82;4.72;;;30.50;55.30;;;;;;5093899;28;20256;-78
2023/06/13 12:00:53;;;;;;;6.10;4.68;;;30.70;54.70;;;;;;5097741;28;20227;-80
2023/06/13 12:03:22;;;;;;;5.88;4.50;;;31.00;53.70;;;;;;5093545;28;20231;-78
2023/06/13 12:05:50;;;;;;;6.28;5.13;;;31.20;54.20;;;;;;5086155;28;20342;-83
2023/06/13 12:08:18;;;;;;;5.72;4.88;;;31.20;53.40;;;;;;5080672;28;20322;-78
2023/06/13 12:10:48;;;;;;;6.38;4.78;;;31.30;52.50;;;;;;5094453;28;20208;-78
2023/06/13 12:13:16;;;;;;;8.65;5.80;;;31.20;52.90;;;;;;5094158;28;20211;-77
2023/06/13 12:15:44;;;;;;;8.05;4.88;;;30.80;52.80;;;;;;5083581;28;20575;-80
2023/06/13 12:18:11;;;;;;;6.90;4.60;;;30.80;53.50;;;;;;5092820;28;20254;-80
2023/06/13 12:20:49;;;;;;;5.53;4.80;;;30.60;53.10;;;;;;5097084;28;20221;-78
2023/06/13 12:23:17;;;;;;;5.05;4.55;;;30.70;53.00;;;;;;5099444;28;20221;-78
2023/06/13 12:25:48;;;;;;;5.95;4.75;;;30.80;54.10;;;;;;5100201;28;20227;-78
2023/06/13 12:28:15;;;;;;;7.97;5.22;;;31.00;53.90;;;;;;5097954;28;20253;-78
2023/06/13 12:30:43;;;;;;;5.95;4.45;;;31.10;54.40;;;;;;5099451;28;20211;-78
2023/06/13 12:33:15;;;;;;;6.65;4.88;;;31.30;54.40;;;;;;5102525;28;20742;-75
2023/06/13 12:35:57;;;;;;;6.90;4.75;;;31.20;54.40;;;;;;5098919;28;20203;-80
2023/06/13 12:38:29;;;;;;;6.72;5.07;;;31.60;54.90;;;;;;5099986;28;20462;-77
2023/06/13 12:40:56;;;;;;;6.05;4.68;;;31.70;54.00;;;;;;5100803;28;20222;-77
2023/06/13 12:43:27;;;;;;;5.72;4.95;;;31.60;53.30;;;;;;5097471;28;20669;-76
2023/06/13 12:45:58;;;;;;;6.38;4.85;;;31.60;53.60;;;;;;5098735;28;20219;-77
2023/06/13 12:48:26;;;;;;;6.00;5.10;;;31.30;52.60;;;;;;5084771;28;20211;-76
2023/06/13 12:50:54;;;;;;;6.93;4.70;;;31.20;53.10;;;;;;5099148;28;20562;-77
2023/06/13 12:53:23;;;;;;;5.55;4.50;;;31.10;52.90;;;;;;5095841;28;20192;-76
2023/06/13 12:55:51;;;;;;;8.30;5.05;;;31.10;53.00;;;;;;5099593;28;20211;-76
2023/06/13 12:58:38;;;;;;;7.88;4.95;;;31.10;52.90;;;;;;5078853;28;20246;-76